createdAt,value
2022-10-30T00:01:10.654Z,1.00
2022-10-30T00:03:37.420Z,1.00
2022-10-30T00:06:08.909Z,1.00
2022-10-30T00:08:35.981Z,1.00
2022-10-30T00:11:11.040Z,1.00
2022-10-30T00:13:38.818Z,1.00
2022-10-30T00:16:07.293Z,1.00
2022-10-30T00:18:39.443Z,1.00
2022-10-30T00:21:11.937Z,1.00
2022-10-30T00:23:39.003Z,1.00
2022-10-30T00:26:07.248Z,1.00
2022-10-30T00:28:34.409Z,1.00
2022-10-30T00:31:02.520Z,1.00
2022-10-30T00:33:29.759Z,1.00
2022-10-30T00:35:58.094Z,1.00
2022-10-30T00:38:24.928Z,1.00
2022-10-30T00:40:51.757Z,1.00
2022-10-30T00:43:29.176Z,1.00
2022-10-30T00:46:00.595Z,1.00
2022-10-30T00:48:28.014Z,1.00
2022-10-30T00:50:57.448Z,1.00
2022-10-30T00:53:24.397Z,1.00
2022-10-30T00:55:56.012Z,1.00
2022-10-30T00:58:26.465Z,1.00
2022-10-30T01:00:56.489Z,1.00
2022-10-30T01:03:25.948Z,1.00
2022-10-30T01:05:58.628Z,1.00
2022-10-30T01:08:25.754Z,1.00
2022-10-30T01:10:52.923Z,1.00
2022-10-30T01:13:22.983Z,1.00
2022-10-30T01:16:09.012Z,1.00
2022-10-30T01:18:52.777Z,1.00
2022-10-30T01:21:25.384Z,1.00
2022-10-30T01:24:07.593Z,1.00
2022-10-30T01:26:56.416Z,1.00
2022-10-30T01:30:04.944Z,1.00
2022-10-30T01:33:04.069Z,1.00
2022-10-30T01:35:52.543Z,1.00
2022-10-30T01:38:26.188Z,1.00
2022-10-30T01:40:53.966Z,1.00
2022-10-30T01:43:21.091Z,1.00
2022-10-30T01:45:58.444Z,1.00
2022-10-30T01:48:44.646Z,1.00
2022-10-30T01:51:26.523Z,1.00
2022-10-30T01:54:04.570Z,1.00
2022-10-30T01:56:53.116Z,1.00
2022-10-30T01:59:31.703Z,1.00
2022-10-30T02:01:59.109Z,1.00
2022-10-30T02:04:26.550Z,1.00
2022-10-30T02:06:53.835Z,1.00
2022-10-30T02:09:20.945Z,1.00
2022-10-30T02:11:52.149Z,1.00
2022-10-30T02:14:24.593Z,1.00
2022-10-30T02:16:54.997Z,1.00
2022-10-30T02:19:21.948Z,1.00
2022-10-30T02:21:49.830Z,1.00
2022-10-30T02:24:17.012Z,1.00
2022-10-30T02:26:43.965Z,1.00
2022-10-30T02:29:10.770Z,1.00
2022-10-30T02:31:38.050Z,1.00
2022-10-30T02:34:05.274Z,1.60
2022-10-30T02:36:32.496Z,3.50
2022-10-30T02:39:00.044Z,17.20
2022-10-30T02:41:27.033Z,24.00
2022-10-30T02:43:53.993Z,23.70
2022-10-30T02:46:21.283Z,31.80
2022-10-30T02:48:49.177Z,63.70
2022-10-30T02:51:16.210Z,72.20
2022-10-30T02:53:43.240Z,89.10
2022-10-30T02:56:13.350Z,92.10
2022-10-30T02:58:42.132Z,95.10
2022-10-30T03:01:18.701Z,99.90
2022-10-30T03:03:46.771Z,99.90
2022-10-30T03:06:16.189Z,99.90
2022-10-30T03:08:43.760Z,99.90
2022-10-30T03:11:15.616Z,99.90
2022-10-30T03:13:44.435Z,99.90
2022-10-30T03:16:16.935Z,99.90
2022-10-30T03:18:44.385Z,99.90
2022-10-30T03:21:14.709Z,99.90
2022-10-30T03:23:41.486Z,99.90
2022-10-30T03:26:08.830Z,91.90
2022-10-30T03:28:48.422Z,90.40
2022-10-30T03:31:18.459Z,97.00
2022-10-30T03:33:46.985Z,99.90
2022-10-30T03:36:14.843Z,88.10
2022-10-30T03:38:42.247Z,92.90
2022-10-30T03:41:11.211Z,99.90
2022-10-30T03:43:38.062Z,99.90
2022-10-30T03:46:05.089Z,99.90
2022-10-30T03:48:32.745Z,99.90
2022-10-30T03:51:00.305Z,99.90
2022-10-30T03:53:28.748Z,99.90
2022-10-30T03:56:00.794Z,99.90
2022-10-30T03:58:36.365Z,99.90
2022-10-30T04:01:07.190Z,99.90
2022-10-30T04:03:38.436Z,99.90
2022-10-30T04:06:07.781Z,99.90
2022-10-30T04:08:34.515Z,99.90
2022-10-30T04:11:02.793Z,99.90
2022-10-30T04:13:29.763Z,99.90
2022-10-30T04:15:58.304Z,99.90
2022-10-30T04:18:26.616Z,99.90
2022-10-30T04:20:54.526Z,99.90
2022-10-30T04:23:22.095Z,99.90
2022-10-30T04:25:49.126Z,99.90
2022-10-30T04:28:16.546Z,99.90
2022-10-30T04:30:43.981Z,99.90
2022-10-30T04:33:12.683Z,99.90
2022-10-30T04:35:41.407Z,99.90
2022-10-30T04:38:14.381Z,99.90
2022-10-30T04:40:44.151Z,99.90
2022-10-30T04:43:13.489Z,99.90
2022-10-30T04:45:41.631Z,99.90
2022-10-30T04:48:14.411Z,99.90
2022-10-30T04:50:43.300Z,99.90
2022-10-30T04:53:14.218Z,99.90
2022-10-30T04:55:42.013Z,99.90
2022-10-30T04:58:11.441Z,99.90
2022-10-30T05:00:40.110Z,99.90
2022-10-30T05:03:19.242Z,99.90
2022-10-30T05:05:47.639Z,99.90
2022-10-30T05:08:14.567Z,99.90
2022-10-30T05:10:41.483Z,99.90
2022-10-30T05:13:12.264Z,99.90
2022-10-30T05:15:39.039Z,99.90
2022-10-30T05:18:06.010Z,99.90
2022-10-30T05:20:33.057Z,99.90
2022-10-30T05:23:00.164Z,99.90
2022-10-30T05:25:28.153Z,99.90
2022-10-30T05:28:01.765Z,99.90
2022-10-30T05:30:30.709Z,99.90
2022-10-30T05:33:03.143Z,99.90
2022-10-30T05:35:32.626Z,99.90
2022-10-30T05:38:05.602Z,99.90
2022-10-30T05:40:34.010Z,99.90
2022-10-30T05:43:01.816Z,99.90
2022-10-30T05:45:29.703Z,99.90
2022-10-30T05:48:03.984Z,99.90
2022-10-30T05:50:35.302Z,99.90
2022-10-30T05:53:23.062Z,99.90
2022-10-30T05:55:50.505Z,99.90
2022-10-30T05:58:20.927Z,99.90
2022-10-30T06:00:48.688Z,99.90
2022-10-30T06:03:22.571Z,99.90
2022-10-30T06:05:49.423Z,99.90
2022-10-30T06:08:17.198Z,99.90
2022-10-30T06:10:45.977Z,99.90
2022-10-30T06:13:23.148Z,99.90
2022-10-30T06:16:03.084Z,99.90
2022-10-30T06:18:48.338Z,99.90
2022-10-30T06:21:15.229Z,99.90
2022-10-30T06:24:04.445Z,99.90
2022-10-30T06:26:42.841Z,99.90
2022-10-30T06:29:13.419Z,99.90
2022-10-30T06:31:41.047Z,99.90
2022-10-30T06:34:07.780Z,1.00
2022-10-30T06:36:37.079Z,1.00
2022-10-30T06:39:04.890Z,1.00
2022-10-30T06:41:41.911Z,1.00
2022-10-30T06:44:23.538Z,1.00
2022-10-30T06:46:53.541Z,1.00
2022-10-30T06:49:20.704Z,1.00
2022-10-30T06:51:49.308Z,1.00
2022-10-30T06:54:16.318Z,1.00
2022-10-30T06:57:02.005Z,1.00
2022-10-30T06:59:44.454Z,1.00
2022-10-30T07:02:40.621Z,1.00
2022-10-30T07:05:09.928Z,1.00
2022-10-30T07:07:36.835Z,1.00
2022-10-30T07:10:03.763Z,1.00
2022-10-30T07:12:57.449Z,1.00
2022-10-30T07:15:46.159Z,1.00
2022-10-30T07:18:35.913Z,1.00
2022-10-30T07:21:02.818Z,1.00
2022-10-30T07:23:31.397Z,1.00
2022-10-30T07:26:08.808Z,1.00
2022-10-30T07:28:37.894Z,1.00
2022-10-30T07:31:34.798Z,1.00
2022-10-30T07:34:08.390Z,1.00
2022-10-30T07:36:53.654Z,1.00
2022-10-30T07:39:34.840Z,1.00
2022-10-30T07:42:17.635Z,1.00
2022-10-30T07:45:04.781Z,1.00
2022-10-30T07:47:44.323Z,1.00
2022-10-30T07:50:17.811Z,1.00
2022-10-30T07:52:44.799Z,99.90
2022-10-30T07:55:12.215Z,99.90
2022-10-30T07:57:43.407Z,99.90
2022-10-30T08:00:28.473Z,99.90
2022-10-30T08:03:06.368Z,99.90
2022-10-30T08:05:37.884Z,88.40
2022-10-30T08:08:08.802Z,1.00
2022-10-30T08:10:36.701Z,1.00
2022-10-30T08:13:03.624Z,1.00
2022-10-30T08:15:31.251Z,1.00
2022-10-30T08:17:58.329Z,1.00
2022-10-30T08:20:25.724Z,99.90
2022-10-30T08:22:54.737Z,99.90
2022-10-30T08:25:27.334Z,99.90
2022-10-30T08:28:00.163Z,99.90
2022-10-30T08:30:34.582Z,99.90
2022-10-30T08:33:05.733Z,99.90
2022-10-30T08:35:56.483Z,99.90
2022-10-30T08:38:23.669Z,99.90
2022-10-30T08:41:03.107Z,99.90
2022-10-30T08:43:32.074Z,99.90
2022-10-30T08:46:01.623Z,99.90
2022-10-30T08:48:28.653Z,99.90
2022-10-30T08:50:59.646Z,99.90
2022-10-30T08:53:31.046Z,99.90
2022-10-30T08:55:58.573Z,99.90
2022-10-30T08:58:31.888Z,93.40
2022-10-30T09:01:01.530Z,42.00
2022-10-30T09:03:57.562Z,32.10
2022-10-30T09:06:49.977Z,31.40
2022-10-30T09:09:37.250Z,35.10
2022-10-30T09:12:05.256Z,24.70
2022-10-30T09:14:38.655Z,28.80
2022-10-30T09:17:06.025Z,33.20
2022-10-30T09:19:35.647Z,39.80
2022-10-30T09:22:02.630Z,39.90
2022-10-30T09:24:30.983Z,36.60
2022-10-30T09:27:39.862Z,41.90
2022-10-30T09:30:09.006Z,37.40
2022-10-30T09:32:41.794Z,43.30
2022-10-30T09:35:10.965Z,31.40
2022-10-30T09:37:40.190Z,39.30
2022-10-30T09:40:24.369Z,32.80
2022-10-30T09:42:52.718Z,31.20
2022-10-30T09:45:48.811Z,28.00
2022-10-30T09:48:25.641Z,31.70
2022-10-30T09:51:31.721Z,29.20
2022-10-30T09:54:10.904Z,29.00
2022-10-30T09:57:01.217Z,26.20
2022-10-30T09:59:59.143Z,22.10
2022-10-30T10:02:56.659Z,21.10
2022-10-30T10:05:28.576Z,21.70
2022-10-30T10:08:22.220Z,23.60
2022-10-30T10:11:31.178Z,19.80
2022-10-30T10:14:14.722Z,20.70
2022-10-30T10:16:43.428Z,7.10
2022-10-30T10:19:36.040Z,4.60
2022-10-30T10:22:06.851Z,6.10
2022-10-30T10:24:40.030Z,9.50
2022-10-30T10:27:48.324Z,5.80
2022-10-30T10:30:20.418Z,8.30
2022-10-30T10:33:20.431Z,3.40
2022-10-30T10:36:13.447Z,8.50
2022-10-30T10:38:58.631Z,6.40
2022-10-30T10:41:56.114Z,1.50
2022-10-30T10:44:51.768Z,1.40
2022-10-30T10:47:49.036Z,1.00
2022-10-30T10:50:25.688Z,1.00
2022-10-30T10:53:01.413Z,1.00
2022-10-30T10:55:36.986Z,1.00
2022-10-30T10:58:15.969Z,1.00
2022-10-30T11:00:43.716Z,1.00
2022-10-30T11:03:33.885Z,1.00
2022-10-30T11:06:18.107Z,1.00
2022-10-30T11:08:44.928Z,1.00
2022-10-30T11:11:11.663Z,1.00
2022-10-30T11:13:40.568Z,1.00
2022-10-30T11:16:46.291Z,1.00
2022-10-30T11:19:13.068Z,1.00
2022-10-30T11:21:44.379Z,1.00
2022-10-30T11:24:32.503Z,1.00
2022-10-30T11:27:16.569Z,1.00
2022-10-30T11:29:59.487Z,1.00
2022-10-30T11:32:28.650Z,1.00
2022-10-30T11:35:07.400Z,1.00
2022-10-30T11:37:36.800Z,1.00
2022-10-30T11:40:12.719Z,1.00
2022-10-30T11:42:42.733Z,1.00
2022-10-30T11:45:17.338Z,1.00
2022-10-30T11:47:44.777Z,1.00
2022-10-30T11:50:23.400Z,1.00
2022-10-30T11:52:54.560Z,1.00
2022-10-30T11:55:35.328Z,1.00
2022-10-30T11:58:02.847Z,1.00
2022-10-30T12:00:34.297Z,1.00
2022-10-30T12:03:01.552Z,1.00
2022-10-30T12:05:32.831Z,1.00
2022-10-30T12:08:20.737Z,1.00
2022-10-30T12:10:59.519Z,1.00
2022-10-30T12:13:27.055Z,1.00
2022-10-30T12:16:16.872Z,1.00
2022-10-30T12:18:54.427Z,1.00
2022-10-30T12:21:21.334Z,1.00
2022-10-30T12:24:14.662Z,1.00
2022-10-30T12:26:41.633Z,1.00
2022-10-30T12:29:15.789Z,1.00
2022-10-30T12:31:58.615Z,1.00
2022-10-30T12:34:43.544Z,1.00
2022-10-30T12:37:24.521Z,1.00
2022-10-30T12:40:10.275Z,1.00
2022-10-30T12:42:44.320Z,1.00
2022-10-30T12:45:16.247Z,1.00
2022-10-30T12:48:09.065Z,1.00
2022-10-30T12:50:52.447Z,1.00
2022-10-30T12:53:44.665Z,1.00
2022-10-30T12:56:18.553Z,1.00
2022-10-30T12:58:50.943Z,1.00
2022-10-30T13:01:27.691Z,1.00
2022-10-30T13:04:04.138Z,1.00
2022-10-30T13:06:35.429Z,1.00
2022-10-30T13:09:23.861Z,1.00
2022-10-30T13:12:16.891Z,1.00
2022-10-30T13:14:55.679Z,1.00
2022-10-30T13:17:22.450Z,1.00
2022-10-30T13:19:51.006Z,1.00
2022-10-30T13:22:34.382Z,1.00
2022-10-30T13:25:14.215Z,1.00
2022-10-30T13:27:51.104Z,1.00
2022-10-30T13:30:25.283Z,1.00
2022-10-30T13:33:01.073Z,1.00
2022-10-30T13:35:54.272Z,1.00
2022-10-30T13:38:42.910Z,1.00
2022-10-30T13:41:28.489Z,1.00
2022-10-30T13:44:07.174Z,1.00
2022-10-30T13:46:49.354Z,1.00
2022-10-30T13:49:42.289Z,1.00
2022-10-30T13:52:17.646Z,1.00
2022-10-30T13:54:46.579Z,1.00
2022-10-30T13:57:20.563Z,1.00
2022-10-30T14:00:16.429Z,1.00
2022-10-30T14:03:10.262Z,1.00
2022-10-30T14:05:45.352Z,1.00
2022-10-30T14:08:40.423Z,1.00
2022-10-30T14:11:11.271Z,1.00
2022-10-30T14:13:58.221Z,1.00
2022-10-30T14:16:31.020Z,1.00
2022-10-30T14:19:12.458Z,1.00
2022-10-30T14:21:48.086Z,1.00
2022-10-30T14:24:18.080Z,1.00
2022-10-30T14:26:52.835Z,1.00
2022-10-30T14:29:38.119Z,1.00
2022-10-30T14:32:14.115Z,1.00
2022-10-30T14:34:50.084Z,1.00
2022-10-30T14:37:23.000Z,1.00
2022-10-30T14:39:51.639Z,1.00
2022-10-30T14:42:40.939Z,1.00
2022-10-30T14:45:16.652Z,1.00
2022-10-30T14:48:07.430Z,1.00
2022-10-30T14:50:50.159Z,1.00
2022-10-30T14:53:22.330Z,1.00
2022-10-30T14:56:19.068Z,1.00
2022-10-30T14:59:14.982Z,1.00
2022-10-30T15:02:00.452Z,1.00
2022-10-30T15:04:54.181Z,1.00
2022-10-30T15:07:40.498Z,1.00
2022-10-30T15:10:29.504Z,1.00
2022-10-30T15:13:15.886Z,1.00
2022-10-30T15:15:44.159Z,1.00
2022-10-30T15:18:18.279Z,1.00
2022-10-30T15:20:51.486Z,1.00
2022-10-30T15:23:27.274Z,1.00
2022-10-30T15:25:56.162Z,1.00
2022-10-30T15:28:26.901Z,1.00
2022-10-30T15:31:17.074Z,2.30
2022-10-30T15:33:44.491Z,1.00
2022-10-30T15:36:29.079Z,1.00
2022-10-30T15:39:17.712Z,1.00
2022-10-30T15:41:46.230Z,1.90
2022-10-30T15:44:18.253Z,5.40
2022-10-30T15:46:47.219Z,11.70
2022-10-30T15:49:26.718Z,17.90
2022-10-30T15:51:53.616Z,20.90
2022-10-30T15:54:21.726Z,20.80
2022-10-30T15:57:21.494Z,28.70
2022-10-30T15:59:37.884Z,31.80
2022-10-30T16:02:20.614Z,36.90
2022-10-30T16:04:48.466Z,46.70
2022-10-30T16:07:24.070Z,55.00
2022-10-30T16:09:54.852Z,67.00
2022-10-30T16:12:25.863Z,70.50
2022-10-30T16:14:53.975Z,80.80
2022-10-30T16:17:21.537Z,85.10
2022-10-30T16:19:51.968Z,89.90
2022-10-30T16:22:37.873Z,94.10
2022-10-30T16:25:11.660Z,97.20
2022-10-30T16:27:45.895Z,99.90
2022-10-30T16:30:16.940Z,99.90
2022-10-30T16:32:52.452Z,99.90
2022-10-30T16:35:21.727Z,99.90
2022-10-30T16:37:50.550Z,99.90
2022-10-30T16:40:21.177Z,99.90
2022-10-30T16:42:59.702Z,99.90
2022-10-30T16:45:33.799Z,99.90
2022-10-30T16:48:13.705Z,99.90
2022-10-30T16:50:40.893Z,99.90
2022-10-30T16:53:18.428Z,99.90
2022-10-30T16:55:45.597Z,99.90
2022-10-30T16:58:17.213Z,99.90
2022-10-30T17:00:54.151Z,99.90
2022-10-30T17:03:25.128Z,99.90
2022-10-30T17:06:05.547Z,99.90
2022-10-30T17:08:43.229Z,99.90
2022-10-30T17:11:19.685Z,99.90
2022-10-30T17:13:52.655Z,99.90
2022-10-30T17:16:30.419Z,99.90
2022-10-30T17:19:00.507Z,99.90
2022-10-30T17:21:45.636Z,99.90
2022-10-30T17:24:21.544Z,99.90
2022-10-30T17:26:59.322Z,99.90
2022-10-30T17:29:38.243Z,99.90
2022-10-30T17:32:14.740Z,99.90
2022-10-30T17:34:41.493Z,99.90
2022-10-30T17:37:08.382Z,99.90
2022-10-30T17:39:36.381Z,99.90
2022-10-30T17:42:03.931Z,99.90
2022-10-30T17:44:34.275Z,99.90
2022-10-30T17:47:07.865Z,99.90
2022-10-30T17:49:34.878Z,99.90
2022-10-30T17:52:02.464Z,99.90
2022-10-30T17:54:29.339Z,99.90
2022-10-30T17:56:57.866Z,99.90
2022-10-30T17:59:24.662Z,99.90
2022-10-30T18:01:51.432Z,99.90
2022-10-30T18:04:21.084Z,99.90
2022-10-30T18:06:49.006Z,99.90
2022-10-30T18:09:16.022Z,99.90
2022-10-30T18:11:42.874Z,99.90
2022-10-30T18:14:11.567Z,99.90
2022-10-30T18:16:38.560Z,99.90
2022-10-30T18:19:10.459Z,99.90
2022-10-30T18:21:37.509Z,99.90
2022-10-30T18:24:10.609Z,99.90
2022-10-30T18:26:40.537Z,99.90
2022-10-30T18:29:08.576Z,99.90
2022-10-30T18:31:35.783Z,99.90
2022-10-30T18:34:03.515Z,99.90
2022-10-30T18:36:30.975Z,99.90
2022-10-30T18:38:58.320Z,99.90
2022-10-30T18:41:33.253Z,99.90
2022-10-30T18:44:00.266Z,99.90
2022-10-30T18:46:31.679Z,99.90
2022-10-30T18:48:58.944Z,99.90
2022-10-30T18:51:28.191Z,99.90
2022-10-30T18:53:56.767Z,99.90
2022-10-30T18:56:26.747Z,1.00
2022-10-30T18:58:58.453Z,1.00
2022-10-30T19:01:30.292Z,1.00
2022-10-30T19:04:00.660Z,1.00
2022-10-30T19:06:27.713Z,1.00
2022-10-30T19:08:54.593Z,1.00
2022-10-30T19:11:24.827Z,1.00
2022-10-30T19:13:53.472Z,1.00
2022-10-30T19:16:25.318Z,1.00
2022-10-30T19:18:52.271Z,1.00
2022-10-30T19:21:25.517Z,1.00
2022-10-30T19:23:53.929Z,1.00
2022-10-30T19:26:20.854Z,1.00
2022-10-30T19:28:47.647Z,1.00
2022-10-30T19:31:19.149Z,1.00
2022-10-30T19:33:51.268Z,1.00
2022-10-30T19:36:33.912Z,1.00
2022-10-30T19:39:08.547Z,1.00
2022-10-30T19:41:36.315Z,1.00
2022-10-30T19:44:03.280Z,1.00
2022-10-30T19:46:30.017Z,1.00
2022-10-30T19:48:58.684Z,1.00
2022-10-30T19:51:27.291Z,1.00
2022-10-30T19:53:54.260Z,1.00
2022-10-30T19:56:21.967Z,1.00
2022-10-30T19:58:49.391Z,1.00
2022-10-30T20:01:16.470Z,1.00
2022-10-30T20:03:43.556Z,1.00
2022-10-30T20:06:14.168Z,1.00
2022-10-30T20:08:40.974Z,1.00
2022-10-30T20:11:07.882Z,1.00
2022-10-30T20:13:34.977Z,1.00
2022-10-30T20:16:04.740Z,1.00
2022-10-30T20:18:33.923Z,1.00
2022-10-30T20:21:03.644Z,1.00
2022-10-30T20:23:30.677Z,1.00
2022-10-30T20:26:03.456Z,1.00
2022-10-30T20:28:38.336Z,1.00
2022-10-30T20:31:06.437Z,1.00
2022-10-30T20:33:34.220Z,1.00
2022-10-30T20:36:01.093Z,1.00
2022-10-30T20:38:35.673Z,1.00
2022-10-30T20:41:04.426Z,1.00
2022-10-30T20:43:35.348Z,1.00
2022-10-30T20:46:04.068Z,1.00
2022-10-30T20:48:31.078Z,1.00
2022-10-30T20:51:00.228Z,1.00
2022-10-30T20:53:27.888Z,1.00
2022-10-30T20:55:54.679Z,1.00
2022-10-30T20:58:21.801Z,1.00
2022-10-30T21:00:49.759Z,1.00
2022-10-30T21:03:16.906Z,1.00
2022-10-30T21:05:45.942Z,1.00
2022-10-30T21:08:16.094Z,1.00
2022-10-30T21:10:43.016Z,1.00
2022-10-30T21:13:11.183Z,1.00
2022-10-30T21:15:40.151Z,1.00
2022-10-30T21:18:08.391Z,1.00
2022-10-30T21:20:36.552Z,1.00
2022-10-30T21:23:03.980Z,1.00
2022-10-30T21:25:32.266Z,1.00
2022-10-30T21:27:59.849Z,1.00
2022-10-30T21:30:27.326Z,1.00
2022-10-30T21:32:54.189Z,1.00
2022-10-30T21:35:21.314Z,1.00
2022-10-30T21:37:48.185Z,1.00
2022-10-30T21:40:14.993Z,1.00
2022-10-30T21:42:41.853Z,1.00
2022-10-30T21:45:09.281Z,1.00
2022-10-30T21:47:36.083Z,1.00
2022-10-30T21:50:06.143Z,1.00
2022-10-30T21:52:33.885Z,1.00
2022-10-30T21:55:00.667Z,1.00
2022-10-30T21:57:29.096Z,1.00
2022-10-30T21:59:58.687Z,1.00
2022-10-30T22:02:31.265Z,1.00
2022-10-30T22:04:58.034Z,1.00
2022-10-30T22:07:24.847Z,1.00
2022-10-30T22:09:52.537Z,1.00
2022-10-30T22:12:19.325Z,1.00
2022-10-30T22:14:46.074Z,1.00
2022-10-30T22:17:12.917Z,1.00
2022-10-30T22:19:39.779Z,1.00
2022-10-30T22:22:06.910Z,1.00
2022-10-30T22:24:33.896Z,1.00
2022-10-30T22:27:00.619Z,1.00
2022-10-30T22:29:27.452Z,2.30
2022-10-30T22:31:54.269Z,1.40
2022-10-30T22:34:21.106Z,3.40
2022-10-30T22:36:48.308Z,11.40
2022-10-30T22:39:15.199Z,16.50
2022-10-30T22:41:42.161Z,24.70
2022-10-30T22:44:13.682Z,14.50
2022-10-30T22:46:41.083Z,13.60
2022-10-30T22:49:08.228Z,7.90
2022-10-30T22:51:37.532Z,6.20
2022-10-30T22:54:07.009Z,23.30
2022-10-30T22:56:35.857Z,43.40
2022-10-30T22:59:05.264Z,45.00
2022-10-30T23:01:34.419Z,52.80
2022-10-30T23:04:03.280Z,39.40
2022-10-30T23:06:31.411Z,24.00
2022-10-30T23:09:00.197Z,30.30
2022-10-30T23:11:28.014Z,28.20
2022-10-30T23:13:55.129Z,30.60
2022-10-30T23:16:24.431Z,19.80
2022-10-30T23:18:53.859Z,27.20
2022-10-30T23:21:22.612Z,18.60
2022-10-30T23:23:49.837Z,18.30
2022-10-30T23:26:19.244Z,17.80
2022-10-30T23:28:47.872Z,38.10
2022-10-30T23:31:32.293Z,46.40
2022-10-30T23:34:01.304Z,59.30
2022-10-30T23:36:28.442Z,67.50
2022-10-30T23:39:00.178Z,59.00
2022-10-30T23:41:29.660Z,62.20
2022-10-30T23:43:58.245Z,85.10
2022-10-30T23:46:25.337Z,94.00
2022-10-30T23:48:52.354Z,99.90
2022-10-30T23:51:19.770Z,99.90
2022-10-30T23:53:46.690Z,99.90
2022-10-30T23:56:14.103Z,99.90
2022-10-30T23:58:48.522Z,99.90
